sensor_id;sensor_type;location;lat;lon;timestamp;P1;durP1;ratioP1;P2;durP2;ratioP2
59336;SDS011;45115;52.002;4.686;2022-12-13T00:01:36;41.17;;;20.58;;
59336;SDS011;45115;52.002;4.686;2022-12-13T00:04:04;39.30;;;18.27;;
59336;SDS011;45115;52.002;4.686;2022-12-13T00:06:33;40.45;;;19.05;;
59336;SDS011;45115;52.002;4.686;2022-12-13T00:09:03;40.22;;;18.63;;
59336;SDS011;45115;52.002;4.686;2022-12-13T00:11:31;43.43;;;19.43;;
59336;SDS011;45115;52.002;4.686;2022-12-13T00:13:58;45.85;;;20.15;;
59336;SDS011;45115;52.002;4.686;2022-12-13T00:16:25;38.72;;;19.33;;
59336;SDS011;45115;52.002;4.686;2022-12-13T00:18:54;37.00;;;18.48;;
59336;SDS011;45115;52.002;4.686;2022-12-13T00:21:22;30.67;;;17.35;;
59336;SDS011;45115;52.002;4.686;2022-12-13T00:23:50;41.80;;;20.05;;
59336;SDS011;45115;52.002;4.686;2022-12-13T00:26:20;37.97;;;18.83;;
59336;SDS011;45115;52.002;4.686;2022-12-13T00:28:49;40.45;;;19.48;;
59336;SDS011;45115;52.002;4.686;2022-12-13T00:31:17;38.63;;;19.27;;
59336;SDS011;45115;52.002;4.686;2022-12-13T00:33:47;41.33;;;19.17;;
59336;SDS011;45115;52.002;4.686;2022-12-13T00:36:14;37.40;;;18.23;;
59336;SDS011;45115;52.002;4.686;2022-12-13T00:38:41;43.30;;;19.02;;
59336;SDS011;45115;52.002;4.686;2022-12-13T00:41:08;42.33;;;19.63;;
59336;SDS011;45115;52.002;4.686;2022-12-13T00:43:38;41.92;;;19.20;;
59336;SDS011;45115;52.002;4.686;2022-12-13T00:46:05;34.78;;;17.98;;
59336;SDS011;45115;52.002;4.686;2022-12-13T00:48:36;37.25;;;17.58;;
59336;SDS011;45115;52.002;4.686;2022-12-13T00:51:04;35.40;;;17.77;;
59336;SDS011;45115;52.002;4.686;2022-12-13T00:53:32;41.20;;;18.73;;
59336;SDS011;45115;52.002;4.686;2022-12-13T00:55:59;39.15;;;17.77;;
59336;SDS011;45115;52.002;4.686;2022-12-13T00:58:25;41.83;;;18.58;;
59336;SDS011;45115;52.002;4.686;2022-12-13T01:01:00;35.45;;;19.25;;
59336;SDS011;45115;52.002;4.686;2022-12-13T01:03:28;39.97;;;19.42;;
59336;SDS011;45115;52.002;4.686;2022-12-13T01:05:55;35.78;;;18.83;;
59336;SDS011;45115;52.002;4.686;2022-12-13T01:08:21;44.15;;;19.60;;
59336;SDS011;45115;52.002;4.686;2022-12-13T01:10:48;42.20;;;19.48;;
59336;SDS011;45115;52.002;4.686;2022-12-13T01:13:15;43.80;;;19.75;;
59336;SDS011;45115;52.002;4.686;2022-12-13T01:15:42;37.60;;;19.13;;
59336;SDS011;45115;52.002;4.686;2022-12-13T01:18:10;41.53;;;18.15;;
59336;SDS011;45115;52.002;4.686;2022-12-13T01:20:38;41.65;;;19.17;;
59336;SDS011;45115;52.002;4.686;2022-12-13T01:23:05;37.13;;;18.92;;
59336;SDS011;45115;52.002;4.686;2022-12-13T01:25:36;42.03;;;19.35;;
59336;SDS011;45115;52.002;4.686;2022-12-13T01:28:04;36.92;;;18.60;;
59336;SDS011;45115;52.002;4.686;2022-12-13T01:30:31;37.90;;;19.85;;
59336;SDS011;45115;52.002;4.686;2022-12-13T01:32:58;35.00;;;18.38;;
59336;SDS011;45115;52.002;4.686;2022-12-13T01:35:26;39.60;;;19.25;;
59336;SDS011;45115;52.002;4.686;2022-12-13T01:37:53;37.42;;;17.08;;
59336;SDS011;45115;52.002;4.686;2022-12-13T01:40:20;38.95;;;19.98;;
59336;SDS011;45115;52.002;4.686;2022-12-13T01:42:46;36.83;;;18.70;;
59336;SDS011;45115;52.002;4.686;2022-12-13T01:45:19;36.65;;;19.45;;
59336;SDS011;45115;52.002;4.686;2022-12-13T01:47:49;38.35;;;18.50;;
59336;SDS011;45115;52.002;4.686;2022-12-13T01:50:20;34.28;;;17.48;;
59336;SDS011;45115;52.002;4.686;2022-12-13T01:52:52;42.63;;;18.30;;
59336;SDS011;45115;52.002;4.686;2022-12-13T01:55:21;43.00;;;17.48;;
59336;SDS011;45115;52.002;4.686;2022-12-13T01:57:50;37.78;;;19.92;;
59336;SDS011;45115;52.002;4.686;2022-12-13T02:00:20;43.42;;;18.83;;
59336;SDS011;45115;52.002;4.686;2022-12-13T02:02:47;40.30;;;19.05;;
59336;SDS011;45115;52.002;4.686;2022-12-13T02:05:15;35.08;;;17.52;;
59336;SDS011;45115;52.002;4.686;2022-12-13T02:07:46;40.03;;;18.10;;
59336;SDS011;45115;52.002;4.686;2022-12-13T02:10:15;43.55;;;19.30;;
59336;SDS011;45115;52.002;4.686;2022-12-13T02:12:43;38.55;;;18.60;;
59336;SDS011;45115;52.002;4.686;2022-12-13T02:15:11;40.00;;;19.27;;
59336;SDS011;45115;52.002;4.686;2022-12-13T02:17:47;35.60;;;18.33;;
59336;SDS011;45115;52.002;4.686;2022-12-13T02:20:29;36.55;;;17.60;;
59336;SDS011;45115;52.002;4.686;2022-12-13T02:32:29;41.67;;;18.17;;
59336;SDS011;45115;52.002;4.686;2022-12-13T02:35:02;40.28;;;19.23;;
59336;SDS011;45115;52.002;4.686;2022-12-13T02:37:32;38.90;;;17.13;;
59336;SDS011;45115;52.002;4.686;2022-12-13T02:40:11;41.35;;;18.30;;
59336;SDS011;45115;52.002;4.686;2022-12-13T02:42:48;39.67;;;17.42;;
59336;SDS011;45115;52.002;4.686;2022-12-13T02:45:22;43.35;;;18.45;;
59336;SDS011;45115;52.002;4.686;2022-12-13T02:47:56;39.00;;;18.30;;
59336;SDS011;45115;52.002;4.686;2022-12-13T02:50:26;38.83;;;18.13;;
59336;SDS011;45115;52.002;4.686;2022-12-13T02:52:55;38.58;;;18.02;;
59336;SDS011;45115;52.002;4.686;2022-12-13T02:55:23;34.28;;;17.00;;
59336;SDS011;45115;52.002;4.686;2022-12-13T02:57:51;40.80;;;18.30;;
59336;SDS011;45115;52.002;4.686;2022-12-13T03:00:19;35.75;;;18.80;;
59336;SDS011;45115;52.002;4.686;2022-12-13T03:02:52;38.92;;;17.95;;
59336;SDS011;45115;52.002;4.686;2022-12-13T03:05:29;37.53;;;17.50;;
59336;SDS011;45115;52.002;4.686;2022-12-13T03:08:23;34.75;;;16.27;;
59336;SDS011;45115;52.002;4.686;2022-12-13T03:10:55;40.35;;;18.50;;
59336;SDS011;45115;52.002;4.686;2022-12-13T03:13:32;39.95;;;20.05;;
59336;SDS011;45115;52.002;4.686;2022-12-13T03:16:13;37.75;;;18.85;;
59336;SDS011;45115;52.002;4.686;2022-12-13T03:18:48;33.70;;;16.52;;
59336;SDS011;45115;52.002;4.686;2022-12-13T03:21:17;37.92;;;17.52;;
59336;SDS011;45115;52.002;4.686;2022-12-13T03:23:44;34.65;;;18.67;;
59336;SDS011;45115;52.002;4.686;2022-12-13T03:26:11;35.70;;;17.08;;
59336;SDS011;45115;52.002;4.686;2022-12-13T03:28:41;34.63;;;17.08;;
59336;SDS011;45115;52.002;4.686;2022-12-13T03:31:08;36.88;;;17.13;;
59336;SDS011;45115;52.002;4.686;2022-12-13T03:33:35;37.20;;;17.85;;
59336;SDS011;45115;52.002;4.686;2022-12-13T03:36:04;34.97;;;17.15;;
59336;SDS011;45115;52.002;4.686;2022-12-13T03:38:34;39.58;;;17.98;;
59336;SDS011;45115;52.002;4.686;2022-12-13T03:41:01;36.17;;;18.27;;
59336;SDS011;45115;52.002;4.686;2022-12-13T03:43:30;38.78;;;19.35;;
59336;SDS011;45115;52.002;4.686;2022-12-13T03:45:58;35.88;;;18.88;;
59336;SDS011;45115;52.002;4.686;2022-12-13T03:48:25;40.50;;;18.83;;
59336;SDS011;45115;52.002;4.686;2022-12-13T03:50:53;39.50;;;18.88;;
59336;SDS011;45115;52.002;4.686;2022-12-13T03:53:21;39.35;;;19.90;;
59336;SDS011;45115;52.002;4.686;2022-12-13T03:55:48;38.10;;;18.40;;
59336;SDS011;45115;52.002;4.686;2022-12-13T03:58:15;36.28;;;17.33;;
59336;SDS011;45115;52.002;4.686;2022-12-13T04:00:43;41.28;;;18.33;;
59336;SDS011;45115;52.002;4.686;2022-12-13T04:03:10;36.15;;;18.88;;
59336;SDS011;45115;52.002;4.686;2022-12-13T04:05:37;37.60;;;18.27;;
59336;SDS011;45115;52.002;4.686;2022-12-13T04:08:05;43.63;;;19.83;;
59336;SDS011;45115;52.002;4.686;2022-12-13T04:10:33;37.80;;;17.75;;
59336;SDS011;45115;52.002;4.686;2022-12-13T04:13:00;38.03;;;19.33;;
59336;SDS011;45115;52.002;4.686;2022-12-13T04:15:44;42.67;;;19.40;;
59336;SDS011;45115;52.002;4.686;2022-12-13T04:18:13;37.22;;;17.42;;
59336;SDS011;45115;52.002;4.686;2022-12-13T04:20:40;41.08;;;19.13;;
59336;SDS011;45115;52.002;4.686;2022-12-13T04:23:07;37.55;;;17.42;;
59336;SDS011;45115;52.002;4.686;2022-12-13T04:25:35;40.17;;;18.50;;
59336;SDS011;45115;52.002;4.686;2022-12-13T04:28:02;40.55;;;18.35;;
59336;SDS011;45115;52.002;4.686;2022-12-13T04:30:29;38.03;;;18.05;;
59336;SDS011;45115;52.002;4.686;2022-12-13T04:32:56;35.25;;;17.88;;
59336;SDS011;45115;52.002;4.686;2022-12-13T04:35:23;41.00;;;18.23;;
59336;SDS011;45115;52.002;4.686;2022-12-13T04:37:50;41.40;;;18.05;;
59336;SDS011;45115;52.002;4.686;2022-12-13T04:40:17;43.22;;;19.40;;
59336;SDS011;45115;52.002;4.686;2022-12-13T04:42:45;37.75;;;18.65;;
59336;SDS011;45115;52.002;4.686;2022-12-13T04:45:12;38.85;;;18.70;;
59336;SDS011;45115;52.002;4.686;2022-12-13T04:47:41;38.58;;;18.38;;
59336;SDS011;45115;52.002;4.686;2022-12-13T04:50:08;36.45;;;17.48;;
59336;SDS011;45115;52.002;4.686;2022-12-13T04:52:35;40.35;;;19.10;;
59336;SDS011;45115;52.002;4.686;2022-12-13T04:55:04;42.03;;;18.83;;
59336;SDS011;45115;52.002;4.686;2022-12-13T04:57:31;38.97;;;17.95;;
59336;SDS011;45115;52.002;4.686;2022-12-13T05:00:00;35.13;;;17.33;;
59336;SDS011;45115;52.002;4.686;2022-12-13T05:02:27;37.63;;;17.45;;
59336;SDS011;45115;52.002;4.686;2022-12-13T05:04:53;36.65;;;18.85;;
59336;SDS011;45115;52.002;4.686;2022-12-13T05:07:21;42.03;;;17.02;;
59336;SDS011;45115;52.002;4.686;2022-12-13T05:09:48;36.53;;;18.20;;
59336;SDS011;45115;52.002;4.686;2022-12-13T05:12:15;45.72;;;18.13;;
59336;SDS011;45115;52.002;4.686;2022-12-13T05:14:42;36.70;;;18.65;;
59336;SDS011;45115;52.002;4.686;2022-12-13T05:17:16;34.65;;;17.17;;
59336;SDS011;45115;52.002;4.686;2022-12-13T05:19:43;37.33;;;17.25;;
59336;SDS011;45115;52.002;4.686;2022-12-13T05:22:10;40.85;;;18.65;;
59336;SDS011;45115;52.002;4.686;2022-12-13T05:24:39;39.22;;;18.38;;
59336;SDS011;45115;52.002;4.686;2022-12-13T05:27:06;36.50;;;17.40;;
59336;SDS011;45115;52.002;4.686;2022-12-13T05:29:33;36.90;;;17.92;;
59336;SDS011;45115;52.002;4.686;2022-12-13T05:32:00;34.80;;;16.83;;
59336;SDS011;45115;52.002;4.686;2022-12-13T05:34:28;36.40;;;17.52;;
59336;SDS011;45115;52.002;4.686;2022-12-13T05:36:55;40.35;;;17.30;;
59336;SDS011;45115;52.002;4.686;2022-12-13T05:39:22;37.53;;;18.10;;
59336;SDS011;45115;52.002;4.686;2022-12-13T05:41:48;40.60;;;18.42;;
59336;SDS011;45115;52.002;4.686;2022-12-13T05:44:16;37.28;;;17.17;;
59336;SDS011;45115;52.002;4.686;2022-12-13T05:46:43;40.55;;;17.35;;
59336;SDS011;45115;52.002;4.686;2022-12-13T05:49:09;38.42;;;17.52;;
59336;SDS011;45115;52.002;4.686;2022-12-13T05:51:37;38.20;;;16.67;;
59336;SDS011;45115;52.002;4.686;2022-12-13T05:54:04;36.20;;;16.75;;
59336;SDS011;45115;52.002;4.686;2022-12-13T05:56:31;36.10;;;17.70;;
59336;SDS011;45115;52.002;4.686;2022-12-13T05:58:57;36.88;;;16.92;;
59336;SDS011;45115;52.002;4.686;2022-12-13T06:01:24;39.17;;;17.80;;
59336;SDS011;45115;52.002;4.686;2022-12-13T06:03:51;35.00;;;17.35;;
59336;SDS011;45115;52.002;4.686;2022-12-13T06:06:18;40.60;;;18.70;;
59336;SDS011;45115;52.002;4.686;2022-12-13T06:08:46;39.35;;;17.20;;
59336;SDS011;45115;52.002;4.686;2022-12-13T06:11:13;33.13;;;17.25;;
59336;SDS011;45115;52.002;4.686;2022-12-13T06:13:40;38.67;;;18.17;;
59336;SDS011;45115;52.002;4.686;2022-12-13T06:16:08;42.80;;;18.23;;
59336;SDS011;45115;52.002;4.686;2022-12-13T06:18:36;43.45;;;19.00;;
59336;SDS011;45115;52.002;4.686;2022-12-13T06:21:03;43.55;;;20.00;;
59336;SDS011;45115;52.002;4.686;2022-12-13T06:23:32;37.15;;;17.83;;
59336;SDS011;45115;52.002;4.686;2022-12-13T06:26:02;37.30;;;18.63;;
59336;SDS011;45115;52.002;4.686;2022-12-13T06:28:29;41.38;;;18.63;;
59336;SDS011;45115;52.002;4.686;2022-12-13T06:30:58;38.80;;;18.73;;
59336;SDS011;45115;52.002;4.686;2022-12-13T06:33:25;40.53;;;18.58;;
59336;SDS011;45115;52.002;4.686;2022-12-13T06:35:54;45.55;;;19.52;;
59336;SDS011;45115;52.002;4.686;2022-12-13T06:38:22;34.92;;;16.83;;
59336;SDS011;45115;52.002;4.686;2022-12-13T06:40:49;39.25;;;19.60;;
59336;SDS011;45115;52.002;4.686;2022-12-13T06:43:17;37.35;;;17.45;;
59336;SDS011;45115;52.002;4.686;2022-12-13T06:45:44;43.42;;;19.02;;
59336;SDS011;45115;52.002;4.686;2022-12-13T06:48:11;38.47;;;18.20;;
59336;SDS011;45115;52.002;4.686;2022-12-13T06:50:37;38.40;;;18.75;;
59336;SDS011;45115;52.002;4.686;2022-12-13T06:53:04;38.35;;;18.10;;
59336;SDS011;45115;52.002;4.686;2022-12-13T06:55:31;37.65;;;17.45;;
59336;SDS011;45115;52.002;4.686;2022-12-13T06:57:57;44.97;;;18.95;;
59336;SDS011;45115;52.002;4.686;2022-12-13T07:00:26;37.60;;;17.65;;
59336;SDS011;45115;52.002;4.686;2022-12-13T07:02:53;34.78;;;16.80;;
59336;SDS011;45115;52.002;4.686;2022-12-13T07:05:20;43.63;;;18.17;;
59336;SDS011;45115;52.002;4.686;2022-12-13T07:07:47;39.80;;;20.48;;
59336;SDS011;45115;52.002;4.686;2022-12-13T07:10:13;43.03;;;19.73;;
59336;SDS011;45115;52.002;4.686;2022-12-13T07:12:40;42.78;;;19.85;;
59336;SDS011;45115;52.002;4.686;2022-12-13T07:15:07;41.30;;;18.42;;
59336;SDS011;45115;52.002;4.686;2022-12-13T07:17:36;36.97;;;17.52;;
59336;SDS011;45115;52.002;4.686;2022-12-13T07:20:03;43.83;;;19.13;;
59336;SDS011;45115;52.002;4.686;2022-12-13T07:22:33;42.70;;;18.27;;
59336;SDS011;45115;52.002;4.686;2022-12-13T07:25:02;37.63;;;18.00;;
59336;SDS011;45115;52.002;4.686;2022-12-13T07:27:30;41.17;;;18.52;;
59336;SDS011;45115;52.002;4.686;2022-12-13T07:29:56;40.00;;;17.88;;
59336;SDS011;45115;52.002;4.686;2022-12-13T07:32:23;38.95;;;18.40;;
59336;SDS011;45115;52.002;4.686;2022-12-13T07:34:51;40.30;;;17.92;;
59336;SDS011;45115;52.002;4.686;2022-12-13T07:37:18;41.70;;;17.95;;
59336;SDS011;45115;52.002;4.686;2022-12-13T07:39:45;40.58;;;17.23;;
59336;SDS011;45115;52.002;4.686;2022-12-13T07:42:12;42.45;;;18.33;;
59336;SDS011;45115;52.002;4.686;2022-12-13T07:44:38;44.72;;;18.40;;
59336;SDS011;45115;52.002;4.686;2022-12-13T07:47:05;42.28;;;19.88;;
59336;SDS011;45115;52.002;4.686;2022-12-13T07:49:32;41.28;;;19.63;;
59336;SDS011;45115;52.002;4.686;2022-12-13T07:52:00;48.28;;;18.90;;
59336;SDS011;45115;52.002;4.686;2022-12-13T07:54:27;40.35;;;19.50;;
59336;SDS011;45115;52.002;4.686;2022-12-13T07:56:53;43.63;;;19.52;;
59336;SDS011;45115;52.002;4.686;2022-12-13T07:59:20;44.63;;;18.58;;
59336;SDS011;45115;52.002;4.686;2022-12-13T08:01:47;36.90;;;18.88;;
59336;SDS011;45115;52.002;4.686;2022-12-13T08:04:13;38.90;;;18.55;;
59336;SDS011;45115;52.002;4.686;2022-12-13T08:06:40;45.53;;;20.20;;
59336;SDS011;45115;52.002;4.686;2022-12-13T08:09:08;44.17;;;19.58;;
59336;SDS011;45115;52.002;4.686;2022-12-13T08:11:35;36.47;;;17.40;;
59336;SDS011;45115;52.002;4.686;2022-12-13T08:14:04;38.90;;;17.33;;
59336;SDS011;45115;52.002;4.686;2022-12-13T08:16:31;38.35;;;19.15;;
59336;SDS011;45115;52.002;4.686;2022-12-13T08:18:58;43.17;;;18.55;;
59336;SDS011;45115;52.002;4.686;2022-12-13T08:21:28;40.95;;;19.83;;
59336;SDS011;45115;52.002;4.686;2022-12-13T08:23:58;41.65;;;19.55;;
59336;SDS011;45115;52.002;4.686;2022-12-13T08:26:26;42.92;;;19.95;;
59336;SDS011;45115;52.002;4.686;2022-12-13T08:28:53;44.50;;;21.38;;
59336;SDS011;45115;52.002;4.686;2022-12-13T08:31:20;44.47;;;20.48;;
59336;SDS011;45115;52.002;4.686;2022-12-13T08:33:46;43.92;;;20.30;;
59336;SDS011;45115;52.002;4.686;2022-12-13T08:36:14;46.92;;;21.25;;
59336;SDS011;45115;52.002;4.686;2022-12-13T08:38:48;49.38;;;20.80;;
59336;SDS011;45115;52.002;4.686;2022-12-13T08:41:43;44.67;;;19.85;;
59336;SDS011;45115;52.002;4.686;2022-12-13T08:44:09;44.53;;;21.30;;
59336;SDS011;45115;52.002;4.686;2022-12-13T08:46:36;46.30;;;20.65;;
59336;SDS011;45115;52.002;4.686;2022-12-13T08:49:03;37.92;;;19.55;;
59336;SDS011;45115;52.002;4.686;2022-12-13T08:51:29;43.00;;;20.58;;
59336;SDS011;45115;52.002;4.686;2022-12-13T08:53:56;49.33;;;21.77;;
59336;SDS011;45115;52.002;4.686;2022-12-13T08:56:23;51.10;;;21.38;;
59336;SDS011;45115;52.002;4.686;2022-12-13T08:58:51;48.15;;;22.48;;
59336;SDS011;45115;52.002;4.686;2022-12-13T09:01:18;49.80;;;22.58;;
59336;SDS011;45115;52.002;4.686;2022-12-13T09:03:47;46.15;;;22.88;;
59336;SDS011;45115;52.002;4.686;2022-12-13T09:06:14;49.40;;;23.83;;
59336;SDS011;45115;52.002;4.686;2022-12-13T09:08:42;52.83;;;24.77;;
59336;SDS011;45115;52.002;4.686;2022-12-13T09:11:09;50.88;;;22.92;;
59336;SDS011;45115;52.002;4.686;2022-12-13T09:13:37;49.40;;;23.83;;
59336;SDS011;45115;52.002;4.686;2022-12-13T09:16:07;52.63;;;22.90;;
59336;SDS011;45115;52.002;4.686;2022-12-13T09:18:36;50.70;;;23.23;;
59336;SDS011;45115;52.002;4.686;2022-12-13T09:21:06;50.20;;;23.05;;
59336;SDS011;45115;52.002;4.686;2022-12-13T09:26:00;49.58;;;20.00;;
59336;SDS011;45115;52.002;4.686;2022-12-13T09:28:27;47.40;;;21.65;;
59336;SDS011;45115;52.002;4.686;2022-12-13T09:30:55;44.85;;;21.48;;
59336;SDS011;45115;52.002;4.686;2022-12-13T09:33:24;45.53;;;21.25;;
59336;SDS011;45115;52.002;4.686;2022-12-13T09:35:51;49.30;;;22.83;;
59336;SDS011;45115;52.002;4.686;2022-12-13T09:38:18;45.55;;;21.90;;
59336;SDS011;45115;52.002;4.686;2022-12-13T09:40:46;46.58;;;21.75;;
59336;SDS011;45115;52.002;4.686;2022-12-13T09:43:17;47.20;;;22.25;;
59336;SDS011;45115;52.002;4.686;2022-12-13T09:45:48;47.85;;;22.17;;
59336;SDS011;45115;52.002;4.686;2022-12-13T09:48:16;48.50;;;23.35;;
59336;SDS011;45115;52.002;4.686;2022-12-13T09:50:46;45.85;;;22.25;;
59336;SDS011;45115;52.002;4.686;2022-12-13T09:53:14;45.95;;;21.13;;
59336;SDS011;45115;52.002;4.686;2022-12-13T09:55:44;43.05;;;21.35;;
59336;SDS011;45115;52.002;4.686;2022-12-13T09:58:13;47.45;;;22.50;;
59336;SDS011;45115;52.002;4.686;2022-12-13T10:03:11;47.50;;;21.33;;
59336;SDS011;45115;52.002;4.686;2022-12-13T10:05:42;44.03;;;22.48;;
59336;SDS011;45115;52.002;4.686;2022-12-13T10:08:12;42.80;;;21.92;;
59336;SDS011;45115;52.002;4.686;2022-12-13T10:10:40;46.05;;;23.58;;
59336;SDS011;45115;52.002;4.686;2022-12-13T10:13:09;52.97;;;23.85;;
59336;SDS011;45115;52.002;4.686;2022-12-13T10:15:43;52.63;;;24.75;;
59336;SDS011;45115;52.002;4.686;2022-12-13T10:18:19;52.08;;;25.25;;
59336;SDS011;45115;52.002;4.686;2022-12-13T10:21:01;43.80;;;24.00;;
59336;SDS011;45115;52.002;4.686;2022-12-13T10:23:31;52.10;;;23.83;;
59336;SDS011;45115;52.002;4.686;2022-12-13T10:25:58;56.42;;;25.75;;
59336;SDS011;45115;52.002;4.686;2022-12-13T10:28:28;50.65;;;24.35;;
59336;SDS011;45115;52.002;4.686;2022-12-13T10:30:57;50.53;;;24.67;;
59336;SDS011;45115;52.002;4.686;2022-12-13T10:33:26;45.08;;;23.00;;
59336;SDS011;45115;52.002;4.686;2022-12-13T10:36:03;43.25;;;24.33;;
59336;SDS011;45115;52.002;4.686;2022-12-13T10:38:35;47.30;;;24.73;;
59336;SDS011;45115;52.002;4.686;2022-12-13T10:44:14;47.90;;;23.38;;
59336;SDS011;45115;52.002;4.686;2022-12-13T10:46:46;50.97;;;23.70;;
59336;SDS011;45115;52.002;4.686;2022-12-13T10:49:16;48.53;;;23.40;;
59336;SDS011;45115;52.002;4.686;2022-12-13T10:51:43;41.40;;;21.95;;
59336;SDS011;45115;52.002;4.686;2022-12-13T10:54:14;43.35;;;22.25;;
59336;SDS011;45115;52.002;4.686;2022-12-13T10:56:44;47.90;;;24.15;;
59336;SDS011;45115;52.002;4.686;2022-12-13T10:59:24;41.67;;;22.75;;
59336;SDS011;45115;52.002;4.686;2022-12-13T11:01:52;45.30;;;23.35;;
59336;SDS011;45115;52.002;4.686;2022-12-13T11:04:21;45.80;;;23.52;;
59336;SDS011;45115;52.002;4.686;2022-12-13T11:06:51;48.78;;;23.85;;
59336;SDS011;45115;52.002;4.686;2022-12-13T11:09:24;44.75;;;23.25;;
59336;SDS011;45115;52.002;4.686;2022-12-13T11:11:54;51.92;;;24.08;;
59336;SDS011;45115;52.002;4.686;2022-12-13T11:14:23;45.70;;;23.38;;
59336;SDS011;45115;52.002;4.686;2022-12-13T11:16:52;46.67;;;22.77;;
59336;SDS011;45115;52.002;4.686;2022-12-13T11:19:23;45.05;;;22.42;;
59336;SDS011;45115;52.002;4.686;2022-12-13T11:21:54;45.97;;;23.65;;
59336;SDS011;45115;52.002;4.686;2022-12-13T11:24:23;47.67;;;23.35;;
59336;SDS011;45115;52.002;4.686;2022-12-13T11:26:56;47.75;;;23.15;;
59336;SDS011;45115;52.002;4.686;2022-12-13T11:29:32;45.03;;;22.80;;
59336;SDS011;45115;52.002;4.686;2022-12-13T11:32:22;45.90;;;23.17;;
59336;SDS011;45115;52.002;4.686;2022-12-13T11:35:04;47.80;;;24.55;;
59336;SDS011;45115;52.002;4.686;2022-12-13T11:37:40;43.92;;;23.73;;
59336;SDS011;45115;52.002;4.686;2022-12-13T11:40:16;47.53;;;23.83;;
59336;SDS011;45115;52.002;4.686;2022-12-13T11:42:47;48.53;;;24.13;;
59336;SDS011;45115;52.002;4.686;2022-12-13T11:45:19;48.03;;;24.98;;
59336;SDS011;45115;52.002;4.686;2022-12-13T11:47:52;49.03;;;23.77;;
59336;SDS011;45115;52.002;4.686;2022-12-13T11:50:26;44.55;;;23.45;;
59336;SDS011;45115;52.002;4.686;2022-12-13T11:52:57;44.10;;;23.65;;
59336;SDS011;45115;52.002;4.686;2022-12-13T11:55:34;50.13;;;24.38;;
59336;SDS011;45115;52.002;4.686;2022-12-13T11:58:03;45.15;;;23.35;;
59336;SDS011;45115;52.002;4.686;2022-12-13T12:00:38;46.10;;;22.92;;
59336;SDS011;45115;52.002;4.686;2022-12-13T12:03:14;46.83;;;22.90;;
59336;SDS011;45115;52.002;4.686;2022-12-13T12:05:45;42.88;;;23.60;;
59336;SDS011;45115;52.002;4.686;2022-12-13T12:08:17;41.15;;;22.98;;
59336;SDS011;45115;52.002;4.686;2022-12-13T12:10:54;44.65;;;22.73;;
59336;SDS011;45115;52.002;4.686;2022-12-13T12:13:29;43.60;;;23.52;;
59336;SDS011;45115;52.002;4.686;2022-12-13T12:16:04;43.72;;;23.70;;
59336;SDS011;45115;52.002;4.686;2022-12-13T12:18:36;42.17;;;22.45;;
59336;SDS011;45115;52.002;4.686;2022-12-13T12:21:06;44.28;;;21.88;;
59336;SDS011;45115;52.002;4.686;2022-12-13T12:23:46;39.53;;;22.30;;
59336;SDS011;45115;52.002;4.686;2022-12-13T12:26:26;39.53;;;20.63;;
59336;SDS011;45115;52.002;4.686;2022-12-13T12:32:05;37.15;;;19.58;;
59336;SDS011;45115;52.002;4.686;2022-12-13T12:34:43;40.10;;;20.35;;
59336;SDS011;45115;52.002;4.686;2022-12-13T12:37:19;40.42;;;21.23;;
59336;SDS011;45115;52.002;4.686;2022-12-13T12:39:57;39.53;;;20.02;;
59336;SDS011;45115;52.002;4.686;2022-12-13T12:42:38;36.15;;;20.10;;
59336;SDS011;45115;52.002;4.686;2022-12-13T12:45:15;34.47;;;18.58;;
59336;SDS011;45115;52.002;4.686;2022-12-13T12:47:56;38.95;;;20.10;;
59336;SDS011;45115;52.002;4.686;2022-12-13T12:50:41;36.05;;;18.75;;
59336;SDS011;45115;52.002;4.686;2022-12-13T12:53:26;35.25;;;19.02;;
59336;SDS011;45115;52.002;4.686;2022-12-13T12:56:05;36.03;;;19.42;;
59336;SDS011;45115;52.002;4.686;2022-12-13T12:58:51;39.70;;;20.23;;
59336;SDS011;45115;52.002;4.686;2022-12-13T13:01:28;34.00;;;19.33;;
59336;SDS011;45115;52.002;4.686;2022-12-13T13:04:08;34.53;;;18.63;;
59336;SDS011;45115;52.002;4.686;2022-12-13T13:06:40;36.92;;;19.10;;
59336;SDS011;45115;52.002;4.686;2022-12-13T13:09:11;37.70;;;18.92;;
59336;SDS011;45115;52.002;4.686;2022-12-13T13:11:41;34.88;;;19.20;;
59336;SDS011;45115;52.002;4.686;2022-12-13T13:16:55;41.88;;;19.40;;
59336;SDS011;45115;52.002;4.686;2022-12-13T13:19:44;37.55;;;18.30;;
59336;SDS011;45115;52.002;4.686;2022-12-13T13:22:24;35.38;;;17.25;;
59336;SDS011;45115;52.002;4.686;2022-12-13T13:24:59;36.30;;;18.30;;
59336;SDS011;45115;52.002;4.686;2022-12-13T13:27:40;36.53;;;20.08;;
59336;SDS011;45115;52.002;4.686;2022-12-13T13:30:16;36.15;;;18.13;;
59336;SDS011;45115;52.002;4.686;2022-12-13T13:32:47;40.03;;;19.55;;
59336;SDS011;45115;52.002;4.686;2022-12-13T13:38:46;40.33;;;19.58;;
59336;SDS011;45115;52.002;4.686;2022-12-13T13:47:10;43.30;;;20.25;;
59336;SDS011;45115;52.002;4.686;2022-12-13T13:49:37;39.05;;;20.23;;
59336;SDS011;45115;52.002;4.686;2022-12-13T13:52:18;40.17;;;19.23;;
59336;SDS011;45115;52.002;4.686;2022-12-13T14:01:19;40.22;;;19.70;;
59336;SDS011;45115;52.002;4.686;2022-12-13T14:04:10;39.60;;;20.45;;
59336;SDS011;45115;52.002;4.686;2022-12-13T14:10:25;38.83;;;18.75;;
59336;SDS011;45115;52.002;4.686;2022-12-13T14:16:28;37.42;;;17.63;;
59336;SDS011;45115;52.002;4.686;2022-12-13T14:19:27;39.97;;;20.15;;
59336;SDS011;45115;52.002;4.686;2022-12-13T14:22:12;38.45;;;18.98;;
59336;SDS011;45115;52.002;4.686;2022-12-13T14:24:47;39.58;;;19.10;;
59336;SDS011;45115;52.002;4.686;2022-12-13T14:27:27;39.13;;;18.80;;
59336;SDS011;45115;52.002;4.686;2022-12-13T14:30:04;34.33;;;17.73;;
59336;SDS011;45115;52.002;4.686;2022-12-13T14:32:33;37.13;;;18.67;;
59336;SDS011;45115;52.002;4.686;2022-12-13T14:35:19;37.80;;;19.90;;
59336;SDS011;45115;52.002;4.686;2022-12-13T14:37:53;41.22;;;20.63;;
59336;SDS011;45115;52.002;4.686;2022-12-13T14:40:24;37.42;;;20.17;;
59336;SDS011;45115;52.002;4.686;2022-12-13T14:45:21;42.58;;;19.52;;
59336;SDS011;45115;52.002;4.686;2022-12-13T14:47:50;47.13;;;20.00;;
59336;SDS011;45115;52.002;4.686;2022-12-13T14:50:19;40.65;;;19.27;;
59336;SDS011;45115;52.002;4.686;2022-12-13T14:52:46;38.97;;;17.77;;
59336;SDS011;45115;52.002;4.686;2022-12-13T14:55:20;41.13;;;20.80;;
59336;SDS011;45115;52.002;4.686;2022-12-13T14:57:50;47.22;;;21.08;;
59336;SDS011;45115;52.002;4.686;2022-12-13T15:00:20;43.55;;;20.67;;
59336;SDS011;45115;52.002;4.686;2022-12-13T15:02:50;39.53;;;19.23;;
59336;SDS011;45115;52.002;4.686;2022-12-13T15:05:23;47.47;;;20.80;;
59336;SDS011;45115;52.002;4.686;2022-12-13T15:07:53;41.35;;;21.02;;
59336;SDS011;45115;52.002;4.686;2022-12-13T15:10:20;42.47;;;21.23;;
59336;SDS011;45115;52.002;4.686;2022-12-13T15:12:50;45.03;;;20.30;;
59336;SDS011;45115;52.002;4.686;2022-12-13T15:15:22;41.72;;;21.15;;
59336;SDS011;45115;52.002;4.686;2022-12-13T15:18:06;44.90;;;20.98;;
59336;SDS011;45115;52.002;4.686;2022-12-13T15:20:48;41.10;;;21.02;;
59336;SDS011;45115;52.002;4.686;2022-12-13T15:23:20;41.40;;;20.55;;
59336;SDS011;45115;52.002;4.686;2022-12-13T15:25:55;40.65;;;20.05;;
59336;SDS011;45115;52.002;4.686;2022-12-13T15:28:25;40.70;;;21.10;;